createdAt,value
2018-02-13T00:00:13.629Z,1005.06
2018-02-13T00:01:13.597Z,1005.08
2018-02-13T00:02:13.564Z,1005.03
2018-02-13T00:03:13.533Z,1005.08
2018-02-13T00:04:13.501Z,1005.06
2018-02-13T00:05:13.467Z,1005.03
2018-02-13T00:06:13.441Z,1005.03
2018-02-13T00:07:13.403Z,1005.04
2018-02-13T00:08:13.370Z,1005.05
2018-02-13T00:09:13.338Z,1005.07
2018-02-13T00:10:13.313Z,1005.07
2018-02-13T00:11:13.275Z,1005.03
2018-02-13T00:12:13.241Z,1005.08
2018-02-13T00:13:13.211Z,1005.07
2018-02-13T00:14:13.178Z,1005.04
2018-02-13T00:15:13.145Z,1005.04
2018-02-13T00:16:13.112Z,1005.04
2018-02-13T00:17:13.081Z,1005.06
2018-02-13T00:18:13.048Z,1005
2018-02-13T00:19:13.017Z,1005.04
2018-02-13T00:20:12.984Z,1005.04
2018-02-13T00:21:12.953Z,1005.04
2018-02-13T00:22:12.920Z,1005.06
2018-02-13T00:23:12.887Z,1005.03
2018-02-13T00:24:12.855Z,1005.08
2018-02-13T00:25:12.822Z,1005.1
2018-02-13T00:26:12.790Z,1005.04
2018-02-13T00:27:12.758Z,1005.05
2018-02-13T00:28:12.725Z,1005.03
2018-02-13T00:29:12.693Z,1005.04
2018-02-13T00:30:12.661Z,1005.04
2018-02-13T00:31:12.629Z,1005
2018-02-13T00:32:12.596Z,1004.96
2018-02-13T00:33:12.565Z,1004.99
2018-02-13T00:34:12.531Z,1005
2018-02-13T00:35:12.499Z,1004.99
2018-02-13T00:36:12.467Z,1004.95
2018-02-13T00:37:12.435Z,1005.01
2018-02-13T00:38:12.402Z,1004.97
2018-02-13T00:39:12.371Z,1004.94
2018-02-13T00:40:12.438Z,1004.98
2018-02-13T00:41:12.304Z,1004.97
2018-02-13T00:42:12.273Z,1004.94
2018-02-13T00:43:12.240Z,1004.93
2018-02-13T00:44:12.208Z,1004.95
2018-02-13T00:45:12.175Z,1004.94
2018-02-13T00:46:12.143Z,1004.95
2018-02-13T00:47:12.112Z,1004.91
2018-02-13T00:48:12.079Z,1004.9
2018-02-13T00:49:12.046Z,1004.9
2018-02-13T00:50:12.014Z,1004.89
2018-02-13T00:51:11.981Z,1004.91
2018-02-13T00:52:11.948Z,1004.86
2018-02-13T00:53:11.917Z,1004.89
2018-02-13T00:54:11.884Z,1004.88
2018-02-13T00:55:11.853Z,1004.84
2018-02-13T00:56:11.818Z,1004.86
2018-02-13T00:57:11.785Z,1004.87
2018-02-13T00:58:11.754Z,1004.87
2018-02-13T00:59:11.722Z,1004.85
2018-02-13T01:00:11.694Z,1004.83
2018-02-13T01:01:11.660Z,1004.83
2018-02-13T01:02:11.625Z,1004.8
2018-02-13T01:03:11.592Z,1004.83
2018-02-13T01:04:11.558Z,1004.83
2018-02-13T01:05:11.527Z,1004.83
2018-02-13T01:06:11.494Z,1004.8
2018-02-13T01:07:11.461Z,1004.79
2018-02-13T01:08:11.429Z,1004.79
2018-02-13T01:09:11.397Z,1004.81
2018-02-13T01:10:11.364Z,1004.81
2018-02-13T01:11:11.333Z,1004.8
2018-02-13T01:12:11.300Z,1004.81
2018-02-13T01:13:11.267Z,1004.83
2018-02-13T01:14:11.233Z,1004.79
2018-02-13T01:15:11.203Z,1004.8
2018-02-13T01:16:11.169Z,1004.83
2018-02-13T01:17:11.138Z,1004.81
2018-02-13T01:18:11.106Z,1004.79
2018-02-13T01:19:11.071Z,1004.78
2018-02-13T01:20:11.040Z,1004.78
2018-02-13T01:21:11.014Z,1004.8
2018-02-13T01:22:10.975Z,1004.78
2018-02-13T01:23:10.940Z,1004.79
2018-02-13T01:24:10.909Z,1004.82
2018-02-13T01:25:10.875Z,1004.84
2018-02-13T01:26:10.842Z,1004.83
2018-02-13T01:27:10.811Z,1004.85
2018-02-13T01:28:10.779Z,1004.85
2018-02-13T01:29:10.744Z,1004.84
2018-02-13T01:30:10.712Z,1004.85
2018-02-13T01:31:10.680Z,1004.86
2018-02-13T01:32:10.646Z,1004.82
2018-02-13T01:33:10.621Z,1004.83
2018-02-13T01:34:10.583Z,1004.82
2018-02-13T01:35:10.551Z,1004.8
2018-02-13T01:36:10.516Z,1004.81
2018-02-13T01:37:10.485Z,1004.77
2018-02-13T01:38:10.452Z,1004.78
2018-02-13T01:39:10.420Z,1004.81
2018-02-13T01:40:10.387Z,1004.79
2018-02-13T01:41:10.354Z,1004.76
2018-02-13T01:42:10.320Z,1004.8
2018-02-13T01:43:10.287Z,1004.82
2018-02-13T01:44:10.255Z,1004.76
2018-02-13T01:45:10.222Z,1004.75
2018-02-13T01:46:10.189Z,1004.8
2018-02-13T01:47:10.160Z,1004.76
2018-02-13T01:48:10.125Z,1004.78
2018-02-13T01:49:10.092Z,1004.8
2018-02-13T01:50:10.060Z,1004.79
2018-02-13T01:51:10.026Z,1004.77
2018-02-13T01:52:09.995Z,1004.8
2018-02-13T01:53:09.960Z,1004.79
2018-02-13T01:54:09.927Z,1004.83
2018-02-13T01:55:09.894Z,1004.79
2018-02-13T01:56:09.862Z,1004.79
2018-02-13T01:57:09.830Z,1004.78
2018-02-13T01:58:09.797Z,1004.8
2018-02-13T01:59:09.764Z,1004.81
2018-02-13T02:00:09.731Z,1004.76
2018-02-13T02:01:09.699Z,1004.78
2018-02-13T02:02:09.665Z,1004.74
2018-02-13T02:03:09.633Z,1004.71
2018-02-13T02:04:09.600Z,1004.75
2018-02-13T02:05:09.567Z,1004.76
2018-02-13T02:06:09.535Z,1004.74
2018-02-13T02:07:09.505Z,1004.76
2018-02-13T02:08:09.471Z,1004.73
2018-02-13T02:09:09.436Z,1004.73
2018-02-13T02:10:09.404Z,1004.73
2018-02-13T02:11:09.371Z,1004.7
2018-02-13T02:12:09.339Z,1004.71
2018-02-13T02:13:09.305Z,1004.71
2018-02-13T02:14:09.273Z,1004.69
2018-02-13T02:15:09.241Z,1004.71
2018-02-13T02:16:09.208Z,1004.68
2018-02-13T02:17:09.175Z,1004.71
2018-02-13T02:18:09.142Z,1004.71
2018-02-13T02:19:09.109Z,1004.71
2018-02-13T02:20:09.075Z,1004.7
2018-02-13T02:21:09.043Z,1004.66
2018-02-13T02:22:09.015Z,1004.64
2018-02-13T02:23:08.978Z,1004.71
2018-02-13T02:24:08.945Z,1004.65
2018-02-13T02:25:08.913Z,1004.67
2018-02-13T02:26:08.880Z,1004.68
2018-02-13T02:27:08.845Z,1004.68
2018-02-13T02:28:08.813Z,1004.66
2018-02-13T02:29:08.781Z,1004.66
2018-02-13T02:30:08.749Z,1004.63
2018-02-13T02:31:08.715Z,1004.65
2018-02-13T02:32:08.688Z,1004.66
2018-02-13T02:33:08.651Z,1004.62
2018-02-13T02:34:08.619Z,1004.61
2018-02-13T02:35:08.583Z,1004.56
2018-02-13T02:36:08.552Z,1004.57
2018-02-13T02:37:08.520Z,1004.56
2018-02-13T02:38:08.486Z,1004.56
2018-02-13T02:39:08.453Z,1004.54
2018-02-13T02:40:08.420Z,1004.53
2018-02-13T02:41:08.389Z,1004.52
2018-02-13T02:42:08.354Z,1004.53
2018-02-13T02:43:08.321Z,1004.51
2018-02-13T02:44:08.290Z,1004.51
2018-02-13T02:45:08.257Z,1004.49
2018-02-13T02:46:08.231Z,1004.5
2018-02-13T02:47:08.209Z,1004.49
2018-02-13T02:48:08.170Z,1004.48
2018-02-13T02:49:08.127Z,1004.46
2018-02-13T02:50:08.108Z,1004.43
2018-02-13T02:51:08.062Z,1004.49
2018-02-13T02:52:08.033Z,1004.49
2018-02-13T02:53:07.995Z,1004.52
2018-02-13T02:54:07.963Z,1004.45
2018-02-13T02:55:07.930Z,1004.47
2018-02-13T02:56:07.896Z,1004.43
2018-02-13T02:57:07.862Z,1004.42
2018-02-13T02:58:07.834Z,1004.42
2018-02-13T02:59:07.797Z,1004.44
2018-02-13T03:00:07.765Z,1004.39
2018-02-13T03:01:07.731Z,1004.38
2018-02-13T03:02:07.702Z,1004.39
2018-02-13T03:03:07.667Z,1004.36
2018-02-13T03:04:07.634Z,1004.34
2018-02-13T03:05:07.601Z,1004.3
2018-02-13T03:06:07.569Z,1004.32
2018-02-13T03:07:07.535Z,1004.31
2018-02-13T03:08:07.502Z,1004.34
2018-02-13T03:09:07.477Z,1004.3
2018-02-13T03:10:07.437Z,1004.29
2018-02-13T03:11:07.404Z,1004.26
2018-02-13T03:12:07.372Z,1004.27
2018-02-13T03:13:07.339Z,1004.21
2018-02-13T03:14:07.306Z,1004.23
2018-02-13T03:15:07.276Z,1004.25
2018-02-13T03:16:07.240Z,1004.21
2018-02-13T03:17:07.209Z,1004.25
2018-02-13T03:18:07.174Z,1004.22
2018-02-13T03:19:07.142Z,1004.22
2018-02-13T03:20:07.110Z,1004.23
2018-02-13T03:21:07.078Z,1004.18
2018-02-13T03:22:07.044Z,1004.16
2018-02-13T03:23:07.012Z,1004.18
2018-02-13T03:24:06.979Z,1004.18
2018-02-13T03:25:06.946Z,1004.13
2018-02-13T03:26:06.915Z,1004.19
2018-02-13T03:27:06.881Z,1004.16
2018-02-13T03:28:06.850Z,1004.15
2018-02-13T03:29:06.814Z,1004.12
2018-02-13T03:30:06.782Z,1004.17
2018-02-13T03:31:06.750Z,1004.12
2018-02-13T03:32:06.718Z,1004.15
2018-02-13T03:33:06.684Z,1004.08
2018-02-13T03:34:06.652Z,1004.1
2018-02-13T03:35:06.619Z,1004.12
2018-02-13T03:36:06.587Z,1004.09
2018-02-13T03:37:06.552Z,1004.11
2018-02-13T03:38:06.520Z,1004.07
2018-02-13T03:39:06.490Z,1004.1
2018-02-13T03:40:06.454Z,1004.06
2018-02-13T03:41:06.422Z,1004.08
2018-02-13T03:42:06.390Z,1004.09
2018-02-13T03:43:06.357Z,1004.08
2018-02-13T03:44:06.324Z,1004.08
2018-02-13T03:45:06.291Z,1004.07
2018-02-13T03:46:06.258Z,1004.09
2018-02-13T03:47:06.227Z,1004.02
2018-02-13T03:48:06.192Z,1004.06
2018-02-13T03:49:06.160Z,1004.07
2018-02-13T03:50:06.128Z,1004.07
2018-02-13T03:51:06.094Z,1004.04
2018-02-13T03:52:06.062Z,1004.05
2018-02-13T03:53:06.033Z,1004.04
2018-02-13T03:54:05.997Z,1003.95
2018-02-13T03:55:05.963Z,1003.97
2018-02-13T03:56:05.932Z,1003.97
2018-02-13T03:57:05.904Z,1003.96
2018-02-13T03:58:05.866Z,1003.97
2018-02-13T03:59:05.832Z,1003.97
2018-02-13T04:00:05.800Z,1003.93
2018-02-13T04:01:05.767Z,1003.93
2018-02-13T04:02:05.740Z,1003.94
2018-02-13T04:03:05.702Z,1003.93
2018-02-13T04:04:05.683Z,1003.97
2018-02-13T04:05:05.636Z,1003.93
2018-02-13T04:06:05.602Z,1003.94
2018-02-13T04:07:05.570Z,1003.95
2018-02-13T04:08:05.538Z,1003.91
2018-02-13T04:09:05.505Z,1003.9
2018-02-13T04:10:05.471Z,1003.95
2018-02-13T04:11:05.438Z,1003.9
2018-02-13T04:12:05.405Z,1003.96
2018-02-13T04:13:05.375Z,1003.9
2018-02-13T04:14:05.339Z,1003.91
2018-02-13T04:15:05.309Z,1003.95
2018-02-13T04:16:05.275Z,1003.91
2018-02-13T04:17:05.240Z,1003.9
2018-02-13T04:18:05.209Z,1003.89
2018-02-13T04:19:05.176Z,1003.87
2018-02-13T04:20:05.144Z,1003.88
2018-02-13T04:21:05.114Z,1003.89
2018-02-13T04:22:05.079Z,1003.87
2018-02-13T04:23:05.045Z,1003.88
2018-02-13T04:24:05.013Z,1003.84
2018-02-13T04:25:04.978Z,1003.84
2018-02-13T04:26:04.947Z,1003.89
2018-02-13T04:27:04.914Z,1003.88
2018-02-13T04:28:04.893Z,1003.82
2018-02-13T04:29:04.848Z,1003.84
2018-02-13T04:30:04.815Z,1003.81
2018-02-13T04:31:04.782Z,1003.84
2018-02-13T04:32:04.748Z,1003.88
2018-02-13T04:33:04.716Z,1003.88
2018-02-13T04:34:04.684Z,1003.81
2018-02-13T04:35:04.651Z,1003.85
2018-02-13T04:36:04.618Z,1003.85
2018-02-13T04:37:04.585Z,1003.81
2018-02-13T04:38:04.552Z,1003.84
2018-02-13T04:39:04.517Z,1003.84
2018-02-13T04:40:04.486Z,1003.81
2018-02-13T04:41:04.453Z,1003.86
2018-02-13T04:42:04.418Z,1003.82
2018-02-13T04:43:04.387Z,1003.86
2018-02-13T04:44:04.353Z,1003.84
2018-02-13T04:45:04.323Z,1003.82
2018-02-13T04:46:04.286Z,1003.82
2018-02-13T04:47:04.254Z,1003.79
2018-02-13T04:48:04.221Z,1003.79
2018-02-13T04:49:04.189Z,1003.82
2018-02-13T04:50:04.156Z,1003.8
2018-02-13T04:51:04.123Z,1003.81
2018-02-13T04:52:04.089Z,1003.79
2018-02-13T04:53:04.055Z,1003.79
2018-02-13T04:54:04.023Z,1003.75
2018-02-13T04:55:03.990Z,1003.79
2018-02-13T04:56:03.956Z,1003.81
2018-02-13T04:57:03.924Z,1003.77
2018-02-13T04:58:03.889Z,1003.8
2018-02-13T04:59:03.856Z,1003.74
2018-02-13T05:00:03.825Z,1003.72
2018-02-13T05:01:03.790Z,1003.73
2018-02-13T05:02:03.757Z,1003.76
2018-02-13T05:03:03.725Z,1003.78
2018-02-13T05:04:03.690Z,1003.75
2018-02-13T05:05:03.658Z,1003.8
2018-02-13T05:06:03.626Z,1003.76
2018-02-13T05:07:03.593Z,1003.78
2018-02-13T05:08:03.558Z,1003.8
2018-02-13T05:09:03.526Z,1003.74
2018-02-13T05:10:03.493Z,1003.74
2018-02-13T05:11:03.460Z,1003.73
2018-02-13T05:12:03.425Z,1003.71
2018-02-13T05:13:03.392Z,1003.74
2018-02-13T05:14:03.362Z,1003.7
2018-02-13T05:15:03.325Z,1003.68
2018-02-13T05:16:03.292Z,1003.67
2018-02-13T05:17:03.261Z,1003.62
2018-02-13T05:18:03.226Z,1003.65
2018-02-13T05:19:03.192Z,1003.65
2018-02-13T05:20:03.161Z,1003.67
2018-02-13T05:21:03.128Z,1003.62
2018-02-13T05:22:03.093Z,1003.66
2018-02-13T05:23:03.061Z,1003.61
2018-02-13T05:24:03.027Z,1003.59
2018-02-13T05:25:02.993Z,1003.64
2018-02-13T05:26:02.959Z,1003.64
2018-02-13T05:27:02.928Z,1003.66
2018-02-13T05:28:02.895Z,1003.68
2018-02-13T05:29:02.860Z,1003.65
2018-02-13T05:30:02.832Z,1003.65
2018-02-13T05:31:02.795Z,1003.62
2018-02-13T05:32:02.762Z,1003.65
2018-02-13T05:33:02.729Z,1003.62
2018-02-13T05:34:02.695Z,1003.67
2018-02-13T05:35:02.661Z,1003.66
2018-02-13T05:36:02.627Z,1003.62
2018-02-13T05:37:02.593Z,1003.61
2018-02-13T05:38:02.561Z,1003.62
2018-02-13T05:39:02.528Z,1003.63
2018-02-13T05:40:02.496Z,1003.61
2018-02-13T05:41:02.461Z,1003.57
2018-02-13T05:42:02.428Z,1003.57
2018-02-13T05:43:02.395Z,1003.48
2018-02-13T05:44:02.363Z,1003.5
2018-02-13T05:45:02.327Z,1003.52
2018-02-13T05:46:02.295Z,1003.47
2018-02-13T05:47:02.263Z,1003.5
2018-02-13T05:48:02.227Z,1003.49
2018-02-13T05:49:02.195Z,1003.55
2018-02-13T05:50:02.162Z,1003.55
2018-02-13T05:51:02.129Z,1003.6
2018-02-13T05:52:02.095Z,1003.63
2018-02-13T05:53:02.065Z,1003.63
2018-02-13T05:54:02.029Z,1003.55
2018-02-13T05:55:01.996Z,1003.59
2018-02-13T05:56:01.962Z,1003.61
2018-02-13T05:57:01.931Z,1003.58
2018-02-13T05:58:01.897Z,1003.55
2018-02-13T05:59:01.864Z,1003.56
2018-02-13T06:00:01.832Z,1003.58
2018-02-13T06:01:01.801Z,1003.62
2018-02-13T06:02:01.764Z,1003.59
2018-02-13T06:03:01.732Z,1003.62
2018-02-13T06:04:01.698Z,1003.63
2018-02-13T06:05:01.665Z,1003.62
2018-02-13T06:06:01.678Z,1003.63
2018-02-13T06:07:01.598Z,1003.62
2018-02-13T06:08:01.565Z,1003.66
2018-02-13T06:09:01.532Z,1003.67
2018-02-13T06:10:01.497Z,1003.61
2018-02-13T06:11:01.468Z,1003.64
2018-02-13T06:12:01.432Z,1003.59
2018-02-13T06:13:01.401Z,1003.62
2018-02-13T06:14:01.363Z,1003.6
2018-02-13T06:15:01.331Z,1003.64
2018-02-13T06:16:01.299Z,1003.65
2018-02-13T06:17:01.264Z,1003.63
2018-02-13T06:18:01.231Z,1003.66
2018-02-13T06:19:01.199Z,1003.58
2018-02-13T06:20:01.166Z,1003.6
2018-02-13T06:21:01.130Z,1003.57
2018-02-13T06:22:01.099Z,1003.58
2018-02-13T06:23:01.065Z,1003.58
2018-02-13T06:24:01.033Z,1003.6
2018-02-13T06:25:00.999Z,1003.62
2018-02-13T06:26:00.966Z,1003.57
2018-02-13T06:27:00.932Z,1003.62
2018-02-13T06:28:00.898Z,1003.6
2018-02-13T06:29:00.864Z,1003.62
2018-02-13T06:30:00.832Z,1003.61
2018-02-13T06:31:00.799Z,1003.59
2018-02-13T06:32:00.770Z,1003.59
2018-02-13T06:33:00.732Z,1003.63
2018-02-13T06:34:00.699Z,1003.61
2018-02-13T06:35:00.668Z,1003.58
2018-02-13T06:36:00.633Z,1003.54
2018-02-13T06:37:00.601Z,1003.53
2018-02-13T06:38:00.566Z,1003.56
2018-02-13T06:39:00.536Z,1003.54
2018-02-13T06:40:00.500Z,1003.52
2018-02-13T06:41:00.471Z,1003.5
2018-02-13T06:42:00.436Z,1003.45
2018-02-13T06:43:00.435Z,1003.51
2018-02-13T06:44:00.367Z,1003.5
2018-02-13T06:45:00.334Z,1003.48
2018-02-13T06:46:00.301Z,1003.43
2018-02-13T06:47:00.267Z,1003.45
2018-02-13T06:48:00.235Z,1003.42
2018-02-13T06:49:00.202Z,1003.39
2018-02-13T06:50:00.168Z,1003.43
2018-02-13T06:51:00.134Z,1003.43
2018-02-13T06:52:00.105Z,1003.45
2018-02-13T06:53:00.069Z,1003.42
2018-02-13T06:54:00.038Z,1003.4
2018-02-13T06:55:00.021Z,1003.38
2018-02-13T06:55:59.970Z,1003.42
2018-02-13T06:56:59.935Z,1003.39
2018-02-13T06:57:59.904Z,1003.41
2018-02-13T06:58:59.868Z,1003.41
2018-02-13T06:59:59.837Z,1003.4
2018-02-13T07:00:59.803Z,1003.36
2018-02-13T07:01:59.769Z,1003.37
2018-02-13T07:02:59.738Z,1003.36
2018-02-13T07:03:59.704Z,1003.41
2018-02-13T07:04:59.671Z,1003.41
2018-02-13T07:05:59.638Z,1003.4
2018-02-13T07:06:59.607Z,1003.42
2018-02-13T07:07:59.573Z,1003.4
2018-02-13T07:08:59.539Z,1003.4
2018-02-13T07:09:59.506Z,1003.4
2018-02-13T07:10:59.472Z,1003.34
2018-02-13T07:11:59.439Z,1003.39
2018-02-13T07:12:59.408Z,1003.33
2018-02-13T07:13:59.380Z,1003.35
2018-02-13T07:14:59.343Z,1003.38
2018-02-13T07:15:59.313Z,1003.37
2018-02-13T07:16:59.275Z,1003.39
2018-02-13T07:17:59.243Z,1003.35
2018-02-13T07:18:59.213Z,1003.36
2018-02-13T07:19:59.176Z,1003.33
2018-02-13T07:20:59.144Z,1003.35
2018-02-13T07:21:59.112Z,1003.32
2018-02-13T07:22:59.079Z,1003.36
2018-02-13T07:23:59.046Z,1003.32
2018-02-13T07:24:59.014Z,1003.33
2018-02-13T07:25:58.982Z,1003.32
2018-02-13T07:26:58.947Z,1003.31
2018-02-13T07:27:58.915Z,1003.33
2018-02-13T07:28:58.887Z,1003.37
2018-02-13T07:29:58.851Z,1003.34
2018-02-13T07:30:58.817Z,1003.36
2018-02-13T07:31:58.785Z,1003.39
2018-02-13T07:32:58.753Z,1003.38
2018-02-13T07:33:58.806Z,1003.36
2018-02-13T07:34:58.930Z,1003.42
2018-02-13T07:35:58.658Z,1003.36
2018-02-13T07:36:58.622Z,1003.42
2018-02-13T07:37:58.589Z,1003.36
2018-02-13T07:38:58.557Z,1003.35
2018-02-13T07:39:58.525Z,1003.41
2018-02-13T07:40:58.493Z,1003.4
2018-02-13T07:41:58.459Z,1003.4
2018-02-13T07:42:58.427Z,1003.41
2018-02-13T07:43:58.397Z,1003.42
2018-02-13T07:44:58.363Z,1003.41
2018-02-13T07:45:58.330Z,1003.41
2018-02-13T07:46:58.299Z,1003.36
2018-02-13T07:47:58.268Z,1003.39
2018-02-13T07:48:58.233Z,1003.41
2018-02-13T07:49:58.201Z,1003.36
2018-02-13T07:50:58.170Z,1003.37
2018-02-13T07:51:58.136Z,1003.36
2018-02-13T07:52:58.108Z,1003.35
2018-02-13T07:53:58.072Z,1003.34
2018-02-13T07:54:58.041Z,1003.33
2018-02-13T07:55:58.008Z,1003.35
2018-02-13T07:56:57.974Z,1003.32
2018-02-13T07:57:57.951Z,1003.36
2018-02-13T07:58:57.910Z,1003.36
2018-02-13T07:59:57.878Z,1003.31
2018-02-13T08:00:57.846Z,1003.37
2018-02-13T08:01:57.814Z,1003.32
2018-02-13T08:02:57.781Z,1003.32
2018-02-13T08:03:57.749Z,1003.32
2018-02-13T08:04:57.718Z,1003.29
2018-02-13T08:05:57.686Z,1003.36
2018-02-13T08:06:57.901Z,1003.35
2018-02-13T08:07:57.621Z,1003.32
2018-02-13T08:08:57.588Z,1003.3
2018-02-13T08:09:57.557Z,1003.32
2018-02-13T08:10:57.524Z,1003.32
2018-02-13T08:11:57.493Z,1003.31
2018-02-13T08:12:57.460Z,1003.37
2018-02-13T08:13:57.428Z,1003.3
2018-02-13T08:14:57.410Z,1003.35
2018-02-13T08:15:57.364Z,1003.34
2018-02-13T08:16:57.333Z,1003.34
2018-02-13T08:17:57.301Z,1003.34
2018-02-13T08:18:57.268Z,1003.34
2018-02-13T08:19:57.237Z,1003.29
2018-02-13T08:20:57.206Z,1003.28
2018-02-13T08:21:57.173Z,1003.28
2018-02-13T08:22:57.152Z,1003.29
2018-02-13T08:23:57.109Z,1003.3
2018-02-13T08:24:57.077Z,1003.26
2018-02-13T08:25:57.046Z,1003.26
2018-02-13T08:26:57.015Z,1003.28
2018-02-13T08:27:56.984Z,1003.31
2018-02-13T08:28:56.952Z,1003.29
2018-02-13T08:29:56.920Z,1003.26
2018-02-13T08:30:56.888Z,1003.35
2018-02-13T08:31:56.856Z,1003.32
2018-02-13T08:32:56.824Z,1003.26
2018-02-13T08:33:56.794Z,1003.24
2018-02-13T08:34:56.762Z,1003.3
2018-02-13T08:35:56.734Z,1003.29
2018-02-13T08:36:56.721Z,1003.28
2018-02-13T08:37:56.667Z,1003.24
2018-02-13T08:38:56.635Z,1003.2
2018-02-13T08:39:56.604Z,1003.26
2018-02-13T08:40:56.572Z,1003.23
2018-02-13T08:41:56.542Z,1003.22
2018-02-13T08:42:56.510Z,1003.21
2018-02-13T08:43:56.479Z,1003.17
2018-02-13T08:44:56.447Z,1003.23
2018-02-13T08:45:56.416Z,1003.22
2018-02-13T08:46:56.384Z,1003.18
2018-02-13T08:47:56.354Z,1003.21
2018-02-13T08:48:56.321Z,1003.1
2018-02-13T08:49:56.292Z,1003.21
2018-02-13T08:50:56.260Z,1003.11
2018-02-13T08:51:56.229Z,1003.11
2018-02-13T08:52:56.198Z,1003.1
2018-02-13T08:53:56.166Z,1003.1
2018-02-13T08:54:56.134Z,1003.14
2018-02-13T08:55:56.102Z,1003.12
2018-02-13T08:56:56.072Z,1003.15
2018-02-13T08:57:56.042Z,1003.12
2018-02-13T08:58:56.013Z,1003.13
2018-02-13T08:59:55.978Z,1003.09
2018-02-13T09:00:55.948Z,1003.17
2018-02-13T09:01:55.916Z,1003.16
2018-02-13T09:02:55.884Z,1003.13
2018-02-13T09:03:55.853Z,1003.11
2018-02-13T09:04:55.825Z,1003.09
2018-02-13T09:05:55.793Z,1003.12
2018-02-13T09:06:55.764Z,1003.16
2018-02-13T09:07:55.732Z,1003.15
2018-02-13T09:08:55.699Z,1003.1
2018-02-13T09:09:55.669Z,1003.14
2018-02-13T09:10:55.638Z,1003.12
2018-02-13T09:11:55.607Z,1003.08
2018-02-13T09:12:55.574Z,1003.07
2018-02-13T09:13:55.545Z,1003.06
2018-02-13T09:14:55.513Z,1003.08
2018-02-13T09:15:55.481Z,1003.09
2018-02-13T09:16:55.451Z,1003.08
2018-02-13T09:17:55.421Z,1003.06
2018-02-13T09:18:55.391Z,1003.07
2018-02-13T09:19:55.359Z,1003.08
2018-02-13T09:20:55.367Z,1003.09
2018-02-13T09:21:55.298Z,1003.11
2018-02-13T09:22:55.268Z,1003.07
2018-02-13T09:23:55.237Z,1003.03
2018-02-13T09:24:55.206Z,1003.07
2018-02-13T09:25:55.177Z,1003
2018-02-13T09:26:55.146Z,1003.04
2018-02-13T09:27:55.115Z,1003.05
2018-02-13T09:28:55.083Z,1003.04
2018-02-13T09:29:55.054Z,1003
2018-02-13T09:30:55.120Z,1002.99
2018-02-13T09:31:54.993Z,1003.02
2018-02-13T09:32:54.962Z,1002.97
2018-02-13T09:33:54.933Z,1002.96
2018-02-13T09:34:54.902Z,1002.96
2018-02-13T09:35:54.877Z,1003
2018-02-13T09:36:54.841Z,1002.92
2018-02-13T09:37:54.818Z,1002.95
2018-02-13T09:38:54.780Z,1002.96
2018-02-13T09:39:54.751Z,1002.98
2018-02-13T09:40:54.720Z,1002.94
2018-02-13T09:41:54.707Z,1002.93
2018-02-13T09:42:54.663Z,1002.95
2018-02-13T09:43:54.629Z,1002.93
2018-02-13T09:44:54.599Z,1002.95
2018-02-13T09:45:54.588Z,1002.92
2018-02-13T09:46:54.538Z,1002.94
2018-02-13T09:47:54.509Z,1002.9
2018-02-13T09:48:54.478Z,1002.84
2018-02-13T09:49:54.447Z,1002.93
2018-02-13T09:50:54.418Z,1002.9
2018-02-13T09:51:54.388Z,1002.89
2018-02-13T09:52:54.358Z,1002.89
2018-02-13T09:53:54.329Z,1002.88
2018-02-13T09:54:54.298Z,1002.84
2018-02-13T09:55:54.269Z,1002.88
2018-02-13T09:56:54.237Z,1002.85
2018-02-13T09:57:54.208Z,1002.84
2018-02-13T09:58:54.271Z,1002.9
2018-02-13T09:59:54.152Z,1002.8
2018-02-13T10:00:54.119Z,1002.87
2018-02-13T10:01:54.088Z,1002.83
2018-02-13T10:02:54.059Z,1002.82
2018-02-13T10:03:54.029Z,1002.67
2018-02-13T10:04:54.000Z,1002.84
2018-02-13T10:05:53.970Z,1002.83
2018-02-13T10:06:53.940Z,1002.91
2018-02-13T10:07:53.910Z,1002.82
2018-02-13T10:08:53.921Z,1002.85
2018-02-13T10:09:53.850Z,1002.89
2018-02-13T10:10:53.821Z,1002.9
2018-02-13T10:11:53.794Z,1002.86
2018-02-13T10:12:53.859Z,1002.86
2018-02-13T10:13:53.733Z,1002.85
2018-02-13T10:14:53.702Z,1002.79
2018-02-13T10:15:53.674Z,1002.79
2018-02-13T10:16:53.645Z,1002.8
2018-02-13T10:17:53.616Z,1002.82
2018-02-13T10:18:53.585Z,1002.84
2018-02-13T10:19:53.554Z,1002.77
2018-02-13T10:20:53.527Z,1002.8
2018-02-13T10:21:53.497Z,1002.75
2018-02-13T10:22:53.466Z,1002.77
2018-02-13T10:23:53.441Z,1002.8
2018-02-13T10:24:53.408Z,1002.81
2018-02-13T10:25:53.378Z,1002.78
2018-02-13T10:26:53.350Z,1002.77
2018-02-13T10:27:53.321Z,1002.73
2018-02-13T10:28:53.291Z,1002.76
2018-02-13T10:29:53.263Z,1002.7
2018-02-13T10:30:53.232Z,1002.72
2018-02-13T10:31:53.255Z,1002.74
2018-02-13T10:32:53.173Z,1002.69
2018-02-13T10:33:53.145Z,1002.66
2018-02-13T10:34:53.114Z,1002.69
2018-02-13T10:35:53.086Z,1002.69
2018-02-13T10:36:53.057Z,1002.67
2018-02-13T10:37:53.028Z,1002.7
2018-02-13T10:38:53.002Z,1002.68
2018-02-13T10:39:52.969Z,1002.61
2018-02-13T10:40:52.941Z,1002.62
2018-02-13T10:41:52.913Z,1002.68
2018-02-13T10:42:52.884Z,1002.65
2018-02-13T10:43:52.854Z,1002.6
2018-02-13T10:44:52.828Z,1002.62
2018-02-13T10:45:52.797Z,1002.61
2018-02-13T10:46:52.768Z,1002.59
2018-02-13T10:47:52.739Z,1002.56
2018-02-13T10:48:52.710Z,1002.59
2018-02-13T10:49:52.682Z,1002.56
2018-02-13T10:50:52.922Z,1002.53
2018-02-13T10:51:52.740Z,1002.5
2018-02-13T10:52:52.594Z,1002.49
2018-02-13T10:53:52.566Z,1002.5
2018-02-13T10:54:52.536Z,1002.48
2018-02-13T10:55:52.509Z,1002.43
2018-02-13T10:56:52.480Z,1002.47
2018-02-13T10:57:52.451Z,1002.43
2018-02-13T10:58:52.422Z,1002.41
2018-02-13T10:59:52.393Z,1002.41
2018-02-13T11:00:52.366Z,1002.38
2018-02-13T11:01:52.336Z,1002.4
2018-02-13T11:02:52.307Z,1002.4
2018-02-13T11:03:52.280Z,1002.31
2018-02-13T11:04:52.251Z,1002.36
2018-02-13T11:05:52.231Z,1002.29
2018-02-13T11:06:52.195Z,1002.33
2018-02-13T11:07:52.166Z,1002.29
2018-02-13T11:08:52.138Z,1002.33
2018-02-13T11:09:52.108Z,1002.33
2018-02-13T11:10:52.083Z,1002.29
2018-02-13T11:11:52.052Z,1002.3
2018-02-13T11:12:52.022Z,1002.3
2018-02-13T11:13:52.225Z,1002.26
2018-02-13T11:14:52.251Z,1002.23
2018-02-13T11:15:51.939Z,1002.24
2018-02-13T11:16:51.910Z,1002.13
2018-02-13T11:17:51.882Z,1002.11
2018-02-13T11:18:51.854Z,1002.23
2018-02-13T11:19:51.866Z,1002.24
2018-02-13T11:20:51.797Z,1002.11
2018-02-13T11:21:51.768Z,1002.13
2018-02-13T11:22:51.740Z,1002.22
2018-02-13T11:23:51.711Z,1002.15
2018-02-13T11:24:51.685Z,1002.13
2018-02-13T11:25:51.656Z,1002.12
2018-02-13T11:26:51.834Z,1002.1
2018-02-13T11:27:51.597Z,1002.08
2018-02-13T11:28:51.570Z,1002.04
2018-02-13T11:29:51.545Z,1002.04
2018-02-13T11:30:51.514Z,1002
2018-02-13T11:31:51.486Z,1001.99
2018-02-13T11:32:51.474Z,1001.98
2018-02-13T11:33:51.428Z,1002.03
2018-02-13T11:34:51.401Z,1002.01
2018-02-13T11:35:51.372Z,1001.96
2018-02-13T11:36:51.344Z,1001.98
2018-02-13T11:37:51.317Z,1002.03
2018-02-13T11:38:51.288Z,1001.98
2018-02-13T11:39:51.260Z,1001.93
2018-02-13T11:40:51.232Z,1001.95
2018-02-13T11:41:51.204Z,1001.89
2018-02-13T11:42:51.175Z,1001.91
2018-02-13T11:43:51.149Z,1001.96
2018-02-13T11:44:51.123Z,1001.88
2018-02-13T11:45:51.090Z,1001.95
2018-02-13T11:46:51.064Z,1001.91
2018-02-13T11:47:51.039Z,1001.93
2018-02-13T11:48:51.007Z,1001.87
2018-02-13T11:49:50.979Z,1001.9
2018-02-13T11:50:50.952Z,1001.84
2018-02-13T11:51:50.924Z,1001.86
2018-02-13T11:52:50.897Z,1001.87
2018-02-13T11:53:50.868Z,1001.89
2018-02-13T11:54:50.839Z,1001.82
2018-02-13T11:55:50.812Z,1001.88
2018-02-13T11:56:50.821Z,1001.77
2018-02-13T11:57:50.756Z,1001.77
2018-02-13T11:58:50.728Z,1001.8
2018-02-13T11:59:50.700Z,1001.72
2018-02-13T12:00:50.673Z,1001.73
2018-02-13T12:01:50.645Z,1001.68
2018-02-13T12:02:50.643Z,1001.72
2018-02-13T12:03:50.589Z,1001.67
2018-02-13T12:04:50.561Z,1001.67
2018-02-13T12:05:50.534Z,1001.69
2018-02-13T12:06:50.505Z,1001.6
2018-02-13T12:07:50.478Z,1001.57